createdAt,value
2023-05-05T00:00:55.106Z,1495.00
2023-05-05T00:01:55.101Z,1485.00
2023-05-05T00:02:55.128Z,1492.00
2023-05-05T00:03:55.102Z,1494.00
2023-05-05T00:04:55.072Z,1484.00
2023-05-05T00:05:55.091Z,1484.00
2023-05-05T00:06:55.049Z,1478.00
2023-05-05T00:07:55.064Z,1479.00
2023-05-05T00:08:55.044Z,1492.00
2023-05-05T00:09:55.060Z,1493.00
2023-05-05T00:10:55.075Z,1481.00
2023-05-05T00:11:55.044Z,1476.00
2023-05-05T00:12:55.122Z,1462.00
2023-05-05T00:13:55.037Z,1471.00
2023-05-05T00:14:55.042Z,1474.00
2023-05-05T00:15:55.085Z,1468.00
2023-05-05T00:16:55.045Z,1490.00
2023-05-05T00:17:55.152Z,1465.00
2023-05-05T00:18:55.027Z,1469.00
2023-05-05T00:19:55.027Z,1477.00
2023-05-05T00:20:55.030Z,1468.00
2023-05-05T00:21:55.026Z,1476.00
2023-05-05T00:22:55.064Z,1477.00
2023-05-05T00:23:55.009Z,1461.00
2023-05-05T00:24:55.029Z,1487.00
2023-05-05T00:25:54.989Z,1470.00
2023-05-05T00:26:55.034Z,1456.00
2023-05-05T00:27:55.032Z,1463.00
2023-05-05T00:28:54.998Z,1465.00
2023-05-05T00:29:55.032Z,1462.00
2023-05-05T00:30:55.034Z,1455.00
2023-05-05T00:31:54.999Z,1473.00
2023-05-05T00:32:55.068Z,1477.00
2023-05-05T00:33:55.000Z,1470.00
2023-05-05T00:34:55.023Z,1463.00
2023-05-05T00:35:55.034Z,1461.00
2023-05-05T00:36:55.005Z,1442.00
2023-05-05T00:37:55.021Z,1471.00
2023-05-05T00:38:55.043Z,1452.00
2023-05-05T00:39:55.007Z,1444.00
2023-05-05T00:40:55.050Z,1449.00
2023-05-05T00:41:55.036Z,1445.00
2023-05-05T00:42:55.038Z,1445.00
2023-05-05T00:43:55.029Z,1441.00
2023-05-05T00:44:55.064Z,1449.00
2023-05-05T00:45:55.057Z,1444.00
2023-05-05T00:46:55.060Z,1441.00
2023-05-05T00:47:55.077Z,1450.00
2023-05-05T00:48:55.110Z,1463.00
2023-05-05T00:49:55.054Z,1466.00
2023-05-05T00:50:55.069Z,1450.00
2023-05-05T00:51:55.063Z,1428.00
2023-05-05T00:52:55.110Z,1427.00
2023-05-05T00:53:55.083Z,1454.00
2023-05-05T00:54:55.085Z,1453.00
2023-05-05T00:55:55.091Z,1445.00
2023-05-05T00:56:55.082Z,1445.00
2023-05-05T00:57:55.080Z,1428.00
2023-05-05T00:58:55.086Z,1434.00
2023-05-05T00:59:55.110Z,1457.00
2023-05-05T01:00:55.091Z,1439.00
2023-05-05T01:01:55.223Z,1451.00
2023-05-05T01:02:55.254Z,1429.00
2023-05-05T01:03:55.159Z,1437.00
2023-05-05T01:04:55.101Z,1430.00
2023-05-05T01:05:55.099Z,1432.00
2023-05-05T01:06:55.092Z,1434.00
2023-05-05T01:07:55.087Z,1418.00
2023-05-05T01:08:55.112Z,1415.00
2023-05-05T01:10:15.218Z,1420.00
2023-05-05T01:10:56.086Z,1421.00
2023-05-05T01:11:55.087Z,1423.00
2023-05-05T01:12:55.127Z,1428.00
2023-05-05T01:13:55.087Z,1438.00
2023-05-05T01:14:55.056Z,1435.00
2023-05-05T01:15:55.097Z,1424.00
2023-05-05T01:16:55.042Z,1424.00
2023-05-05T01:17:55.059Z,1442.00
2023-05-05T01:18:55.014Z,1414.00
2023-05-05T01:19:55.052Z,1449.00
2023-05-05T01:20:55.016Z,1432.00
2023-05-05T01:21:55.084Z,1434.00
2023-05-05T01:22:54.983Z,1432.00
2023-05-05T01:23:54.968Z,1426.00
2023-05-05T01:24:54.999Z,1438.00
2023-05-05T01:25:54.960Z,1416.00
2023-05-05T01:26:54.954Z,1414.00
2023-05-05T01:27:54.987Z,1432.00
2023-05-05T01:28:54.946Z,1420.00
2023-05-05T01:29:54.928Z,1415.00
2023-05-05T01:30:54.921Z,1424.00
2023-05-05T01:31:54.961Z,1411.00
2023-05-05T01:32:54.938Z,1408.00
2023-05-05T01:33:54.914Z,1403.00
2023-05-05T01:34:54.894Z,1423.00
2023-05-05T01:35:54.885Z,1416.00
2023-05-05T01:36:54.887Z,1423.00
2023-05-05T01:37:54.899Z,1411.00
2023-05-05T01:38:54.867Z,1422.00
2023-05-05T01:39:54.850Z,1428.00
2023-05-05T01:40:54.859Z,1397.00
2023-05-05T01:41:54.882Z,1406.00
2023-05-05T01:42:54.855Z,1422.00
2023-05-05T01:43:54.826Z,1412.00
2023-05-05T01:44:54.842Z,1406.00
2023-05-05T01:45:54.882Z,1414.00
2023-05-05T01:46:54.807Z,1406.00
2023-05-05T01:47:54.908Z,1396.00
2023-05-05T01:48:54.798Z,1429.00
2023-05-05T01:49:54.771Z,1411.00
2023-05-05T01:50:54.779Z,1400.00
2023-05-05T01:51:54.771Z,1403.00
2023-05-05T01:52:54.773Z,1399.00
2023-05-05T01:53:54.796Z,1405.00
2023-05-05T01:54:54.806Z,1394.00
2023-05-05T01:55:54.784Z,1393.00
2023-05-05T01:56:54.791Z,1392.00
2023-05-05T01:57:54.817Z,1385.00
2023-05-05T01:58:54.798Z,1397.00
2023-05-05T01:59:54.835Z,1392.00
2023-05-05T02:00:54.855Z,1406.00
2023-05-05T02:01:54.829Z,1371.00
2023-05-05T02:02:54.949Z,1409.00
2023-05-05T02:03:54.824Z,1384.00
2023-05-05T02:04:54.835Z,1386.00
2023-05-05T02:05:54.850Z,1388.00
2023-05-05T02:06:54.853Z,1396.00
2023-05-05T02:07:54.866Z,1373.00
2023-05-05T02:08:54.857Z,1419.00
2023-05-05T02:09:54.896Z,1396.00
2023-05-05T02:10:54.934Z,1358.00
2023-05-05T02:11:54.892Z,1384.00
2023-05-05T02:12:54.896Z,1378.00
2023-05-05T02:13:54.896Z,1393.00
2023-05-05T02:14:54.887Z,1383.00
2023-05-05T02:15:54.917Z,1390.00
2023-05-05T02:16:54.917Z,1375.00
2023-05-05T02:17:54.930Z,1374.00
2023-05-05T02:18:54.912Z,1364.00
2023-05-05T02:19:54.914Z,1394.00
2023-05-05T02:20:54.950Z,1372.00
2023-05-05T02:21:54.963Z,1370.00
2023-05-05T02:22:55.019Z,1384.00
2023-05-05T02:23:54.944Z,1372.00
2023-05-05T02:24:54.973Z,1360.00
2023-05-05T02:25:54.975Z,1403.00
2023-05-05T02:26:54.975Z,1393.00
2023-05-05T02:27:54.981Z,1368.00
2023-05-05T02:28:55.003Z,1350.00
2023-05-05T02:29:55.002Z,1381.00
2023-05-05T02:30:55.001Z,1369.00
2023-05-05T02:31:54.994Z,1361.00
2023-05-05T02:32:55.074Z,1377.00
2023-05-05T02:33:55.022Z,1355.00
2023-05-05T02:34:55.022Z,1380.00
2023-05-05T02:35:55.032Z,1356.00
2023-05-05T02:36:55.029Z,1387.00
2023-05-05T02:37:55.052Z,1356.00
2023-05-05T02:38:55.055Z,1364.00
2023-05-05T02:39:55.050Z,1400.00
2023-05-05T02:40:55.080Z,1342.00
2023-05-05T02:41:55.068Z,1367.00
2023-05-05T02:42:55.208Z,1355.00
2023-05-05T02:43:55.063Z,1362.00
2023-05-05T02:44:55.086Z,1353.00
2023-05-05T02:45:55.076Z,1371.00
2023-05-05T02:46:55.111Z,1342.00
2023-05-05T02:47:55.142Z,1369.00
2023-05-05T02:48:55.111Z,1344.00
2023-05-05T02:49:55.083Z,1352.00
2023-05-05T02:50:55.090Z,1333.00
2023-05-05T02:51:55.081Z,1338.00
2023-05-05T02:52:55.090Z,1337.00
2023-05-05T02:53:55.096Z,1336.00
2023-05-05T02:54:55.121Z,1335.00
2023-05-05T02:55:55.078Z,1340.00
2023-05-05T02:56:55.080Z,1362.00
2023-05-05T02:57:55.084Z,1340.00
2023-05-05T02:58:55.094Z,1328.00
2023-05-05T02:59:55.107Z,1319.00
2023-05-05T03:00:55.081Z,1344.00
2023-05-05T03:01:55.141Z,1338.00
2023-05-05T03:02:55.274Z,1320.00
2023-05-05T03:03:55.106Z,1334.00
2023-05-05T03:04:55.085Z,1335.00
2023-05-05T03:05:55.092Z,1327.00
2023-05-05T03:06:55.079Z,1324.00
2023-05-05T03:07:55.099Z,1321.00
2023-05-05T03:08:55.128Z,1328.00
2023-05-05T03:09:55.083Z,1347.00
2023-05-05T03:10:55.091Z,1296.00
2023-05-05T03:11:55.069Z,1335.00
2023-05-05T03:12:55.125Z,1316.00
2023-05-05T03:13:55.074Z,1334.00
2023-05-05T03:14:55.083Z,1334.00
2023-05-05T03:15:55.102Z,1339.00
2023-05-05T03:16:55.092Z,1328.00
2023-05-05T03:17:55.127Z,1337.00
2023-05-05T03:18:55.084Z,1325.00
2023-05-05T03:19:55.065Z,1306.00
2023-05-05T03:20:55.084Z,1341.00
2023-05-05T03:21:55.076Z,1302.00
2023-05-05T03:22:55.073Z,1315.00
2023-05-05T03:23:55.079Z,1316.00
2023-05-05T03:24:55.080Z,1329.00
2023-05-05T03:25:55.107Z,1318.00
2023-05-05T03:26:55.084Z,1315.00
2023-05-05T03:27:55.117Z,1314.00
2023-05-05T03:28:55.094Z,1335.00
2023-05-05T03:29:55.092Z,1317.00
2023-05-05T03:30:55.130Z,1321.00
2023-05-05T03:31:55.118Z,1296.00
2023-05-05T03:32:55.294Z,1327.00
2023-05-05T03:33:55.128Z,1315.00
2023-05-05T03:34:55.093Z,1307.00
2023-05-05T03:35:55.092Z,1309.00
2023-05-05T03:36:55.126Z,1295.00
2023-05-05T03:37:55.092Z,1305.00
2023-05-05T03:38:55.097Z,1287.00
2023-05-05T03:39:55.098Z,1304.00
2023-05-05T03:40:55.123Z,1292.00
2023-05-05T03:41:55.097Z,1313.00
2023-05-05T03:42:55.112Z,1309.00
2023-05-05T03:43:55.104Z,1325.00
2023-05-05T03:44:55.116Z,1300.00
2023-05-05T03:45:55.173Z,1304.00
2023-05-05T03:46:55.125Z,1289.00
2023-05-05T03:47:55.153Z,1309.00
2023-05-05T03:48:55.123Z,1289.00
2023-05-05T03:49:55.113Z,1306.00
2023-05-05T03:50:55.111Z,1280.00
2023-05-05T03:51:55.159Z,1291.00
2023-05-05T03:52:55.134Z,1301.00
2023-05-05T03:53:55.132Z,1291.00
2023-05-05T03:54:55.112Z,1291.00
2023-05-05T03:55:55.135Z,1279.00
2023-05-05T03:56:55.125Z,1269.00
2023-05-05T03:57:55.131Z,1303.00
2023-05-05T03:58:55.121Z,1286.00
2023-05-05T03:59:55.138Z,1280.00
2023-05-05T04:00:55.172Z,1270.00
2023-05-05T04:01:55.184Z,1288.00
2023-05-05T04:02:55.242Z,1287.00
2023-05-05T04:03:55.307Z,1271.00
2023-05-05T04:04:55.156Z,1288.00
2023-05-05T04:05:55.168Z,1283.00
2023-05-05T04:06:55.172Z,1297.00
2023-05-05T04:07:55.159Z,1278.00
2023-05-05T04:08:55.177Z,1271.00
2023-05-05T04:09:55.185Z,1271.00
2023-05-05T04:10:55.161Z,1316.00
2023-05-05T04:11:55.163Z,1278.00
2023-05-05T04:12:55.232Z,1260.00
2023-05-05T04:13:55.168Z,1277.00
2023-05-05T04:14:55.175Z,1269.00
2023-05-05T04:15:55.174Z,1263.00
2023-05-05T04:16:55.171Z,1266.00
2023-05-05T04:17:55.214Z,1246.00
2023-05-05T04:18:55.195Z,1257.00
2023-05-05T04:19:55.176Z,1247.00
2023-05-05T04:20:55.176Z,1237.00
2023-05-05T04:21:55.171Z,1272.00
2023-05-05T04:22:55.224Z,1247.00
2023-05-05T04:23:55.172Z,1260.00
2023-05-05T04:24:55.178Z,1250.00
2023-05-05T04:25:55.172Z,1262.00
2023-05-05T04:26:55.175Z,1243.00
2023-05-05T04:27:55.183Z,1264.00
2023-05-05T04:28:55.176Z,1250.00
2023-05-05T04:29:55.198Z,1248.00
2023-05-05T04:30:55.209Z,1250.00
2023-05-05T04:31:55.186Z,1251.00
2023-05-05T04:32:55.212Z,1241.00
2023-05-05T04:33:55.169Z,1283.00
2023-05-05T04:34:55.160Z,1237.00
2023-05-05T04:35:55.167Z,1232.00
2023-05-05T04:36:55.157Z,1223.00
2023-05-05T04:37:55.196Z,1235.00
2023-05-05T04:38:55.170Z,1240.00
2023-05-05T04:39:55.186Z,1243.00
2023-05-05T04:40:55.167Z,1248.00
2023-05-05T04:41:55.209Z,1242.00
2023-05-05T04:42:55.177Z,1232.00
2023-05-05T04:43:55.151Z,1242.00
2023-05-05T04:44:55.172Z,1238.00
2023-05-05T04:45:55.161Z,1235.00
2023-05-05T04:46:55.236Z,1221.00
2023-05-05T04:47:55.227Z,1236.00
2023-05-05T04:48:55.146Z,1220.00
2023-05-05T04:49:55.152Z,1220.00
2023-05-05T04:50:55.178Z,1221.00
2023-05-05T04:51:55.154Z,1233.00
2023-05-05T04:52:55.161Z,1208.00
2023-05-05T04:53:55.187Z,1211.00
2023-05-05T04:54:55.159Z,1216.00
2023-05-05T04:55:55.158Z,1202.00
2023-05-05T04:56:55.184Z,1205.00
2023-05-05T04:57:55.183Z,1196.00
2023-05-05T04:58:55.233Z,1166.00
2023-05-05T04:59:55.258Z,1162.00
2023-05-05T05:00:55.260Z,1178.00
2023-05-05T05:01:55.324Z,1175.00
2023-05-05T05:02:55.402Z,1174.00
2023-05-05T05:03:55.300Z,1184.00
2023-05-05T05:04:55.285Z,1167.00
2023-05-05T05:05:55.332Z,1166.00
2023-05-05T05:06:56.213Z,1161.00
2023-05-05T05:07:55.445Z,1170.00
2023-05-05T05:08:55.368Z,1113.00
2023-05-05T05:09:55.374Z,1066.00
2023-05-05T05:10:55.373Z,1084.00
2023-05-05T05:11:55.362Z,1068.00
2023-05-05T05:12:55.766Z,1099.00
2023-05-05T05:13:55.361Z,1207.00
2023-05-05T05:14:55.334Z,1303.00
2023-05-05T05:15:55.319Z,1429.00
2023-05-05T05:16:55.406Z,1546.00
2023-05-05T05:17:57.218Z,1655.00
2023-05-05T05:18:55.291Z,1697.00
2023-05-05T05:19:55.311Z,1689.00
2023-05-05T05:20:55.294Z,1670.00
2023-05-05T05:21:55.295Z,1621.00
2023-05-05T05:22:55.266Z,1580.00
2023-05-05T05:23:55.295Z,1555.00
2023-05-05T05:24:55.444Z,1477.00
2023-05-05T05:25:55.268Z,1380.00
2023-05-05T05:26:55.271Z,1296.00
2023-05-05T05:28:06.069Z,1234.00
2023-05-05T05:28:56.323Z,1205.00
2023-05-05T05:29:55.274Z,1154.00
2023-05-05T05:30:55.225Z,1137.00
2023-05-05T05:31:55.285Z,1087.00
2023-05-05T05:32:55.216Z,1052.00
2023-05-05T05:33:55.218Z,1022.00
2023-05-05T05:34:55.240Z,1010.00
2023-05-05T05:35:55.204Z,989.00
2023-05-05T05:36:55.401Z,990.00
2023-05-05T05:37:55.182Z,982.00
2023-05-05T05:38:55.188Z,949.00
2023-05-05T05:39:55.169Z,957.00
2023-05-05T05:40:55.193Z,948.00
2023-05-05T05:41:55.194Z,969.00
2023-05-05T05:42:55.225Z,962.00
2023-05-05T05:43:55.303Z,976.00
2023-05-05T05:44:55.347Z,971.00
2023-05-05T05:45:55.517Z,978.00
2023-05-05T05:46:55.471Z,999.00
2023-05-05T05:47:55.575Z,1001.00
2023-05-05T05:48:55.591Z,969.00
2023-05-05T05:49:55.600Z,949.00
2023-05-05T05:50:55.593Z,929.00
2023-05-05T05:51:55.583Z,936.00
2023-05-05T05:52:55.632Z,925.00
2023-05-05T05:53:58.142Z,928.00
2023-05-05T05:54:55.669Z,915.00
2023-05-05T05:55:55.624Z,912.00
2023-05-05T05:56:55.640Z,888.00
2023-05-05T05:57:55.609Z,882.00
2023-05-05T05:58:55.589Z,892.00
2023-05-05T05:59:55.599Z,895.00
2023-05-05T06:00:55.566Z,905.00
2023-05-05T06:01:55.578Z,905.00
2023-05-05T06:02:55.687Z,913.00
2023-05-05T06:03:55.688Z,904.00
2023-05-05T06:04:55.538Z,910.00
2023-05-05T06:05:55.548Z,899.00
2023-05-05T06:06:55.726Z,902.00
2023-05-05T06:07:55.584Z,909.00
2023-05-05T06:08:55.531Z,926.00
2023-05-05T06:09:55.515Z,934.00
2023-05-05T06:10:55.504Z,899.00
2023-05-05T06:11:55.513Z,898.00
2023-05-05T06:12:55.509Z,885.00
2023-05-05T06:13:55.538Z,889.00
2023-05-05T06:14:55.526Z,914.00
2023-05-05T06:15:55.547Z,887.00
2023-05-05T06:16:55.498Z,896.00
2023-05-05T06:17:55.502Z,912.00
2023-05-05T06:18:55.473Z,904.00
2023-05-05T06:19:55.530Z,914.00
2023-05-05T06:20:55.461Z,924.00
2023-05-05T06:21:55.445Z,897.00
2023-05-05T06:22:55.425Z,899.00
2023-05-05T06:23:55.435Z,907.00
2023-05-05T06:24:55.440Z,900.00
2023-05-05T06:25:55.408Z,908.00
2023-05-05T06:26:55.421Z,907.00
2023-05-05T06:27:55.465Z,916.00
2023-05-05T06:28:55.708Z,905.00
2023-05-05T06:29:55.376Z,898.00
2023-05-05T06:30:55.387Z,882.00
2023-05-05T06:31:55.459Z,898.00
2023-05-05T06:32:55.438Z,877.00
2023-05-05T06:33:55.354Z,883.00
2023-05-05T06:34:55.363Z,894.00
2023-05-05T06:35:55.357Z,835.00
2023-05-05T06:36:55.396Z,857.00
2023-05-05T06:37:55.437Z,866.00
2023-05-05T06:38:55.728Z,865.00
2023-05-05T06:39:55.335Z,881.00
2023-05-05T06:40:55.392Z,884.00
2023-05-05T06:41:55.350Z,869.00
2023-05-05T06:42:55.310Z,882.00
2023-05-05T06:43:55.306Z,885.00
2023-05-05T06:44:55.324Z,880.00
2023-05-05T06:45:55.278Z,893.00
2023-05-05T06:46:55.308Z,872.00
2023-05-05T06:47:55.292Z,865.00
2023-05-05T06:48:55.333Z,854.00
2023-05-05T06:49:55.334Z,840.00
2023-05-05T06:50:55.372Z,856.00
2023-05-05T06:51:55.465Z,849.00
2023-05-05T06:52:55.469Z,823.00
2023-05-05T06:53:55.603Z,684.00
2023-05-05T06:54:55.511Z,652.00
2023-05-05T06:55:55.689Z,643.00
2023-05-05T06:56:56.574Z,655.00
2023-05-05T06:57:55.710Z,635.00
2023-05-05T06:58:55.737Z,626.00
2023-05-05T06:59:55.783Z,613.00
2023-05-05T07:00:55.927Z,606.00
2023-05-05T07:02:55.945Z,607.00
2023-05-05T07:03:55.949Z,601.00
2023-05-05T07:04:55.996Z,592.00
2023-05-05T07:05:56.013Z,595.00
2023-05-05T07:06:56.087Z,596.00
2023-05-05T07:07:56.094Z,600.00
2023-05-05T07:08:56.279Z,592.00
2023-05-05T07:09:56.278Z,592.00
2023-05-05T07:10:56.227Z,589.00
2023-05-05T07:11:56.231Z,596.00
2023-05-05T07:12:56.303Z,583.00
2023-05-05T07:13:56.896Z,563.00
2023-05-05T07:14:56.348Z,566.00
2023-05-05T07:15:56.368Z,548.00
2023-05-05T07:16:56.422Z,549.00
2023-05-05T07:17:56.526Z,541.00
2023-05-05T07:18:56.511Z,514.00
2023-05-05T07:19:56.527Z,543.00
2023-05-05T07:20:56.468Z,505.00
2023-05-05T07:21:56.488Z,513.00
2023-05-05T07:22:56.548Z,497.00
2023-05-05T07:23:56.789Z,499.00
2023-05-05T07:24:56.659Z,507.00
2023-05-05T07:25:56.770Z,530.00
2023-05-05T07:26:56.610Z,515.00
2023-05-05T07:27:56.694Z,505.00
2023-05-05T07:28:56.850Z,501.00
2023-05-05T07:29:56.704Z,497.00
2023-05-05T07:30:56.710Z,515.00
2023-05-05T07:31:56.824Z,544.00
2023-05-05T07:32:56.911Z,544.00
2023-05-05T07:33:57.314Z,546.00
2023-05-05T07:34:56.805Z,559.00
2023-05-05T07:35:56.920Z,559.00
2023-05-05T07:36:56.898Z,589.00
2023-05-05T07:37:56.958Z,596.00
2023-05-05T07:38:56.984Z,606.00
2023-05-05T07:39:57.006Z,599.00
2023-05-05T07:40:57.093Z,619.00
2023-05-05T07:41:57.161Z,623.00
2023-05-05T07:42:57.101Z,635.00
2023-05-05T07:43:57.130Z,627.00
2023-05-05T07:44:57.150Z,604.00
2023-05-05T07:45:57.184Z,641.00
2023-05-05T07:46:57.196Z,654.00
2023-05-05T07:47:57.224Z,674.00
2023-05-05T07:48:57.198Z,769.00
2023-05-05T07:49:57.210Z,838.00
2023-05-05T07:50:57.201Z,888.00
2023-05-05T07:51:57.226Z,881.00
2023-05-05T07:53:06.263Z,911.00
2023-05-05T07:53:58.234Z,913.00
2023-05-05T07:54:57.188Z,920.00
2023-05-05T07:55:57.216Z,929.00
2023-05-05T07:56:57.220Z,952.00
2023-05-05T07:57:57.409Z,961.00
2023-05-05T07:58:57.173Z,977.00
2023-05-05T07:59:57.188Z,970.00
2023-05-05T08:00:57.140Z,987.00
2023-05-05T08:01:57.179Z,1016.00
2023-05-05T08:02:57.186Z,1018.00
2023-05-05T08:03:57.229Z,1032.00
2023-05-05T08:04:57.125Z,1049.00
2023-05-05T08:05:57.238Z,1079.00
2023-05-05T08:06:57.109Z,1064.00
2023-05-05T08:07:57.106Z,1044.00
2023-05-05T08:08:57.265Z,1006.00
2023-05-05T08:09:57.114Z,1020.00
2023-05-05T08:10:57.075Z,1022.00
2023-05-05T08:11:57.087Z,1002.00
2023-05-05T08:12:57.231Z,1019.00
2023-05-05T08:13:57.133Z,1034.00
2023-05-05T08:14:57.055Z,987.00
2023-05-05T08:15:57.076Z,1032.00
2023-05-05T08:16:57.090Z,1023.00
2023-05-05T08:17:57.194Z,1040.00
2023-05-05T08:18:57.167Z,1006.00
2023-05-05T08:19:57.238Z,1008.00
2023-05-05T08:20:57.305Z,1037.00
2023-05-05T08:21:58.878Z,1026.00
2023-05-05T08:22:57.831Z,1069.00
2023-05-05T08:23:59.341Z,1027.00
2023-05-05T08:24:57.352Z,849.00
2023-05-05T08:25:57.364Z,865.00
2023-05-05T08:26:57.328Z,771.00
2023-05-05T08:27:57.423Z,684.00
2023-05-05T08:28:57.367Z,630.00
2023-05-05T08:29:57.371Z,587.00
2023-05-05T08:30:57.339Z,547.00
2023-05-05T08:31:57.472Z,602.00
2023-05-05T08:32:57.697Z,601.00
2023-05-05T08:33:57.416Z,589.00
2023-05-05T08:34:57.374Z,567.00
2023-05-05T08:35:57.372Z,609.00
2023-05-05T08:36:57.416Z,536.00
2023-05-05T08:37:59.254Z,532.00
2023-05-05T08:38:57.525Z,549.00
2023-05-05T08:39:57.530Z,533.00
2023-05-05T08:40:57.526Z,539.00
2023-05-05T08:41:57.541Z,554.00
2023-05-05T08:42:57.530Z,559.00
2023-05-05T08:43:57.822Z,503.00
2023-05-05T08:44:59.093Z,518.00
2023-05-05T08:45:57.558Z,516.00
2023-05-05T08:46:57.641Z,510.00
2023-05-05T08:47:57.622Z,564.00
2023-05-05T08:48:57.585Z,548.00
2023-05-05T08:49:57.588Z,500.00
2023-05-05T08:50:59.956Z,560.00
2023-05-05T08:51:57.590Z,591.00
2023-05-05T08:52:57.643Z,605.00
2023-05-05T08:53:57.588Z,658.00
2023-05-05T08:54:57.578Z,636.00
2023-05-05T08:55:57.587Z,622.00
2023-05-05T08:56:57.566Z,640.00
2023-05-05T08:57:57.648Z,663.00
2023-05-05T08:58:57.570Z,665.00
2023-05-05T08:59:57.546Z,665.00
2023-05-05T09:00:57.637Z,688.00
2023-05-05T09:01:57.615Z,676.00
2023-05-05T09:02:57.701Z,636.00
2023-05-05T09:03:57.556Z,631.00
2023-05-05T09:04:57.551Z,580.00
2023-05-05T09:05:57.521Z,555.00
2023-05-05T09:06:57.513Z,574.00
2023-05-05T09:07:57.514Z,581.00
2023-05-05T09:08:59.516Z,585.00
2023-05-05T09:09:57.509Z,611.00
2023-05-05T09:10:57.490Z,590.00
2023-05-05T09:11:57.473Z,609.00
2023-05-05T09:12:57.568Z,582.00
2023-05-05T09:13:57.487Z,626.00
2023-05-05T09:14:59.302Z,629.00
2023-05-05T09:15:57.535Z,630.00
2023-05-05T09:16:57.700Z,654.00
2023-05-05T09:17:57.737Z,626.00
2023-05-05T09:18:57.681Z,579.00
2023-05-05T09:19:57.739Z,591.00
2023-05-05T09:20:59.495Z,633.00
2023-05-05T09:21:57.851Z,652.00
2023-05-05T09:22:57.843Z,683.00
2023-05-05T09:24:00.377Z,719.00
2023-05-05T09:24:58.972Z,720.00
2023-05-05T09:25:57.894Z,720.00
2023-05-05T09:26:59.118Z,686.00
2023-05-05T09:27:57.862Z,666.00
2023-05-05T09:28:57.865Z,988.00
2023-05-05T09:29:57.836Z,1219.00
2023-05-05T09:30:57.879Z,1188.00
2023-05-05T09:31:57.844Z,1151.00
2023-05-05T09:32:57.864Z,1092.00
2023-05-05T09:33:57.873Z,916.00
2023-05-05T09:34:57.835Z,723.00
2023-05-05T09:35:57.805Z,585.00
2023-05-05T09:36:57.875Z,525.00
2023-05-05T09:37:57.938Z,476.00
2023-05-05T09:38:58.817Z,500.00
2023-05-05T09:39:58.024Z,405.00
2023-05-05T09:40:58.082Z,478.00
2023-05-05T09:41:58.125Z,474.00
2023-05-05T09:42:58.847Z,538.00
2023-05-05T09:43:58.275Z,572.00
2023-05-05T09:44:59.969Z,499.00
2023-05-05T09:45:58.422Z,521.00
2023-05-05T09:47:00.296Z,583.00
2023-05-05T09:48:00.356Z,608.00
2023-05-05T09:48:58.538Z,654.00
2023-05-05T09:49:58.613Z,660.00
2023-05-05T09:50:58.585Z,626.00
2023-05-05T09:51:58.634Z,622.00
2023-05-05T09:52:58.702Z,483.00
2023-05-05T09:53:58.728Z,445.00
2023-05-05T09:54:58.792Z,453.00
2023-05-05T09:55:58.864Z,483.00
2023-05-05T09:56:58.888Z,534.00
2023-05-05T09:57:59.033Z,563.00
2023-05-05T09:58:58.898Z,512.00
2023-05-05T09:59:58.950Z,567.00
2023-05-05T10:00:58.945Z,519.00
2023-05-05T10:01:59.065Z,520.00
2023-05-05T10:02:59.298Z,626.00
2023-05-05T10:03:59.021Z,498.00
2023-05-05T10:05:00.977Z,579.00
2023-05-05T10:05:59.183Z,521.00
2023-05-05T10:06:59.079Z,567.00
2023-05-05T10:07:59.026Z,542.00
2023-05-05T10:08:59.116Z,500.00
2023-05-05T10:09:59.048Z,523.00
2023-05-05T10:10:59.017Z,613.00
2023-05-05T10:11:59.026Z,685.00
2023-05-05T10:12:59.026Z,597.00
2023-05-05T10:13:58.987Z,609.00
2023-05-05T10:14:59.100Z,572.00
2023-05-05T10:15:59.030Z,517.00
2023-05-05T10:16:58.962Z,592.00
2023-05-05T10:18:06.883Z,607.00
2023-05-05T10:18:59.985Z,607.00
2023-05-05T10:19:58.967Z,607.00
2023-05-05T10:20:58.964Z,624.00
2023-05-05T10:21:59.157Z,704.00
2023-05-05T10:22:59.008Z,907.00
2023-05-05T10:23:58.933Z,949.00
2023-05-05T10:24:58.956Z,1122.00
2023-05-05T10:25:58.907Z,993.00
2023-05-05T10:26:58.987Z,915.00
2023-05-05T10:27:59.319Z,607.00
2023-05-05T10:28:59.239Z,574.00
2023-05-05T10:29:59.005Z,562.00
2023-05-05T10:30:59.147Z,492.00
2023-05-05T10:31:59.133Z,517.00
2023-05-05T10:33:08.283Z,603.00
2023-05-05T10:34:00.333Z,603.00
2023-05-05T10:34:59.070Z,614.00
2023-05-05T10:35:59.171Z,638.00
2023-05-05T10:36:59.129Z,630.00
2023-05-05T10:37:59.271Z,633.00
2023-05-05T10:38:59.115Z,684.00
2023-05-05T10:39:59.036Z,717.00
2023-05-05T10:40:59.135Z,825.00
2023-05-05T10:41:59.126Z,847.00
2023-05-05T10:42:59.339Z,657.00
2023-05-05T10:44:00.445Z,843.00
2023-05-05T10:44:59.350Z,902.00
2023-05-05T10:45:59.334Z,987.00
2023-05-05T10:46:59.835Z,860.00
2023-05-05T10:47:59.329Z,814.00
2023-05-05T10:48:59.390Z,804.00
2023-05-05T10:49:59.860Z,671.00
2023-05-05T10:50:59.413Z,603.00
2023-05-05T10:51:59.432Z,572.00
2023-05-05T10:52:59.478Z,664.00
2023-05-05T10:53:59.685Z,724.00
2023-05-05T10:54:59.500Z,777.00
2023-05-05T10:55:59.534Z,830.00
2023-05-05T10:56:59.563Z,1111.00
2023-05-05T10:57:59.643Z,1260.00
2023-05-05T10:59:00.850Z,1332.00
2023-05-05T10:59:59.715Z,1442.00
2023-05-05T11:00:59.766Z,1629.00
2023-05-05T11:01:59.798Z,1714.00
2023-05-05T11:02:59.908Z,1813.00
2023-05-05T11:03:59.921Z,1893.00
2023-05-05T11:04:59.928Z,1968.00
2023-05-05T11:05:59.987Z,2086.00
2023-05-05T11:06:59.999Z,2154.00
2023-05-05T11:08:00.066Z,2232.00
2023-05-05T11:09:00.187Z,2293.00
2023-05-05T11:10:00.225Z,2336.00
2023-05-05T11:11:00.235Z,2371.00
2023-05-05T11:12:00.277Z,2441.00
2023-05-05T11:13:00.401Z,2530.00
2023-05-05T11:14:00.399Z,2605.00
2023-05-05T11:15:00.461Z,2641.00
2023-05-05T11:16:00.531Z,2708.00
2023-05-05T11:17:00.639Z,2633.00
2023-05-05T11:18:01.894Z,2213.00
2023-05-05T11:19:00.788Z,2380.00
2023-05-05T11:20:00.921Z,2520.00
2023-05-05T11:21:01.014Z,2509.00
2023-05-05T11:22:01.035Z,2522.00
2023-05-05T11:23:01.118Z,2548.00
2023-05-05T11:24:01.339Z,2592.00
2023-05-05T11:25:01.146Z,2631.00
2023-05-05T11:26:01.241Z,2678.00
2023-05-05T11:27:01.198Z,2683.00
2023-05-05T11:28:01.268Z,2705.00
2023-05-05T11:29:01.207Z,2743.00
2023-05-05T11:30:01.219Z,2749.00
2023-05-05T11:31:01.349Z,2748.00
2023-05-05T11:32:01.254Z,2767.00
2023-05-05T11:33:01.332Z,2791.00
2023-05-05T11:34:01.260Z,2779.00
2023-05-05T11:35:01.457Z,2796.00
2023-05-05T11:36:03.437Z,2790.00
2023-05-05T11:37:01.309Z,2829.00
2023-05-05T11:38:01.359Z,2839.00
2023-05-05T11:39:01.338Z,2829.00
2023-05-05T11:40:01.290Z,2835.00
2023-05-05T11:41:01.293Z,2819.00
2023-05-05T11:42:05.331Z,2813.00
2023-05-05T11:43:02.321Z,2815.00
2023-05-05T11:44:01.261Z,2821.00
2023-05-05T11:45:01.279Z,2834.00
2023-05-05T11:46:01.290Z,2855.00
2023-05-05T11:47:01.258Z,2865.00
2023-05-05T11:48:01.325Z,2869.00
2023-05-05T11:49:01.257Z,2887.00
2023-05-05T11:50:01.252Z,2865.00
2023-05-05T11:51:01.212Z,2905.00
2023-05-05T11:52:01.252Z,2910.00
2023-05-05T11:53:01.230Z,2928.00
2023-05-05T11:54:01.197Z,2905.00
2023-05-05T11:55:01.200Z,2902.00
2023-05-05T11:56:01.173Z,2927.00
2023-05-05T11:57:01.180Z,2914.00
2023-05-05T11:58:01.248Z,2927.00
2023-05-05T11:59:01.169Z,2923.00
2023-05-05T12:00:01.216Z,2927.00
2023-05-05T12:01:01.159Z,2932.00
2023-05-05T12:02:01.178Z,2913.00
2023-05-05T12:03:01.182Z,2934.00
2023-05-05T12:04:01.330Z,2927.00
2023-05-05T12:05:01.223Z,2926.00
2023-05-05T12:06:01.109Z,2911.00
2023-05-05T12:07:01.114Z,2912.00
2023-05-05T12:08:01.160Z,2924.00
2023-05-05T12:09:01.129Z,2941.00
2023-05-05T12:10:01.106Z,2952.00
2023-05-05T12:11:01.101Z,2958.00
2023-05-05T12:12:01.093Z,2965.00
2023-05-05T12:13:01.105Z,2961.00
2023-05-05T12:14:01.143Z,2949.00
2023-05-05T12:15:01.057Z,2943.00
2023-05-05T12:16:01.101Z,2954.00